createdAt,value
2018-09-24T00:00:00.459Z,10.90
2018-09-24T00:05:05.508Z,10.80
2018-09-24T00:07:36.992Z,10.80
2018-09-24T00:10:06.876Z,10.80
2018-09-24T00:12:39.922Z,10.70
2018-09-24T00:15:09.338Z,10.60
2018-09-24T00:17:41.915Z,10.70
2018-09-24T00:20:11.414Z,10.70
2018-09-24T00:22:44.910Z,10.70
2018-09-24T00:25:14.562Z,10.70
2018-09-24T00:27:47.986Z,10.70
2018-09-24T00:30:17.868Z,10.70
2018-09-24T00:32:51.491Z,10.70
2018-09-24T00:35:20.924Z,10.70
2018-09-24T00:37:54.122Z,10.70
2018-09-24T00:40:23.587Z,10.70
2018-09-24T00:42:57.407Z,10.70
2018-09-24T00:45:26.800Z,10.70
2018-09-24T00:47:59.118Z,10.60
2018-09-24T00:50:29.008Z,10.60
2018-09-24T00:53:02.864Z,10.60
2018-09-24T00:55:32.185Z,10.60
2018-09-24T00:58:05.285Z,10.60
2018-09-24T01:00:34.797Z,10.60
2018-09-24T01:03:08.829Z,10.60
2018-09-24T01:05:38.064Z,10.60
2018-09-24T01:08:14.585Z,10.50
2018-09-24T01:10:44.061Z,10.50
2018-09-24T01:13:16.222Z,10.50
2018-09-24T01:15:45.621Z,10.60
2018-09-24T01:18:17.807Z,10.60
2018-09-24T01:20:47.636Z,10.50
2018-09-24T01:23:19.214Z,10.50
2018-09-24T01:25:48.826Z,10.50
2018-09-24T01:28:23.323Z,10.50
2018-09-24T01:30:52.558Z,10.50
2018-09-24T01:33:25.631Z,10.40
2018-09-24T01:35:55.022Z,10.40
2018-09-24T01:38:28.404Z,10.40
2018-09-24T01:40:58.460Z,10.40
2018-09-24T01:43:30.477Z,10.40
2018-09-24T01:45:59.838Z,10.40
2018-09-24T01:48:33.491Z,10.40
2018-09-24T01:51:03.137Z,10.40
2018-09-24T01:53:36.509Z,10.30
2018-09-24T01:56:05.844Z,10.30
2018-09-24T01:58:39.840Z,10.30
2018-09-24T02:01:10.295Z,10.30
2018-09-24T02:03:41.576Z,10.20
2018-09-24T02:06:11.061Z,10.20
2018-09-24T02:08:44.646Z,10.20
2018-09-24T02:11:14.160Z,10.20
2018-09-24T02:13:49.397Z,10.20
2018-09-24T02:16:19.734Z,10.20
2018-09-24T02:18:49.260Z,10.10
2018-09-24T02:21:18.763Z,10.10
2018-09-24T02:23:52.472Z,10.20
2018-09-24T02:26:22.490Z,10.20
2018-09-24T02:28:55.172Z,10.20
2018-09-24T02:31:25.223Z,10.10
2018-09-24T02:33:58.129Z,10.10
2018-09-24T02:36:27.850Z,10.10
2018-09-24T02:39:00.384Z,10.10
2018-09-24T02:41:30.108Z,10.10
2018-09-24T02:44:03.668Z,10.10
2018-09-24T02:46:33.697Z,10.10
2018-09-24T02:49:06.995Z,10.10
2018-09-24T02:51:36.519Z,10.10
2018-09-24T02:54:09.338Z,10.00
2018-09-24T02:56:45.332Z,10.00
2018-09-24T02:59:14.907Z,10.00
2018-09-24T03:01:44.091Z,10.00
2018-09-24T03:04:15.747Z,10.00
2018-09-24T03:06:45.536Z,10.00
2018-09-24T03:09:19.145Z,10.00
2018-09-24T03:11:48.548Z,10.00
2018-09-24T03:14:26.865Z,10.00
2018-09-24T03:16:56.466Z,10.10
2018-09-24T03:19:25.877Z,10.00
2018-09-24T03:21:55.992Z,10.00
2018-09-24T03:24:27.101Z,10.00
2018-09-24T03:26:56.502Z,10.00
2018-09-24T03:29:29.695Z,9.90
2018-09-24T03:31:59.078Z,9.90
2018-09-24T03:34:31.756Z,9.90
2018-09-24T03:37:01.397Z,9.90
2018-09-24T03:39:34.153Z,9.90
2018-09-24T03:42:03.733Z,9.90
2018-09-24T03:44:40.571Z,9.90
2018-09-24T03:47:09.811Z,9.80
2018-09-24T03:49:39.638Z,9.80
2018-09-24T03:52:09.486Z,9.80
2018-09-24T03:54:42.179Z,9.80
2018-09-24T03:57:11.724Z,9.80
2018-09-24T03:59:44.719Z,9.80
2018-09-24T04:02:13.997Z,9.80
2018-09-24T04:04:52.561Z,9.80
2018-09-24T04:07:27.294Z,9.70
2018-09-24T04:10:01.474Z,9.70
2018-09-24T04:12:35.684Z,9.70
2018-09-24T04:15:10.391Z,9.70
2018-09-24T04:20:26.177Z,9.70
2018-09-24T04:23:03.979Z,9.70
2018-09-24T04:25:38.862Z,9.70
2018-09-24T04:28:13.360Z,9.70
2018-09-24T04:30:47.797Z,9.60
2018-09-24T04:33:22.381Z,9.70
2018-09-24T04:36:03.079Z,9.70
2018-09-24T04:38:38.414Z,9.70
2018-09-24T04:41:13.910Z,9.70
2018-09-24T04:43:48.900Z,9.70
2018-09-24T04:46:23.508Z,9.60
2018-09-24T04:48:58.043Z,9.70
2018-09-24T04:51:32.906Z,9.70
2018-09-24T04:54:13.426Z,9.70
2018-09-24T04:56:48.309Z,9.60
2018-09-24T04:59:24.766Z,9.70
2018-09-24T05:01:59.577Z,9.70
2018-09-24T05:04:34.279Z,9.70
2018-09-24T05:07:09.106Z,9.70
2018-09-24T05:09:43.645Z,9.70
2018-09-24T05:12:23.558Z,9.60
2018-09-24T05:14:57.998Z,9.70
2018-09-24T05:22:37.367Z,9.60
2018-09-24T05:25:12.313Z,9.60
2018-09-24T05:27:46.661Z,9.60
2018-09-24T05:30:21.443Z,9.70
2018-09-24T05:32:55.861Z,9.60
2018-09-24T05:35:36.013Z,9.60
2018-09-24T05:38:10.522Z,9.70
2018-09-24T05:40:46.082Z,9.60
2018-09-24T05:43:20.450Z,9.70
2018-09-24T05:45:55.361Z,9.70
2018-09-24T05:48:29.797Z,9.70
2018-09-24T05:51:04.378Z,9.70
2018-09-24T05:53:47.297Z,9.70
2018-09-24T05:56:21.732Z,9.70
2018-09-24T05:58:56.860Z,9.80
2018-09-24T06:01:31.681Z,9.80
2018-09-24T06:04:06.756Z,9.80
2018-09-24T06:06:40.971Z,9.80
2018-09-24T06:09:15.447Z,9.80
2018-09-24T06:11:56.914Z,9.80
2018-09-24T06:14:31.407Z,9.90
2018-09-24T06:17:07.132Z,10.00
2018-09-24T06:19:41.735Z,10.00
2018-09-24T06:22:16.734Z,10.10
2018-09-24T06:24:51.286Z,10.10
2018-09-24T06:27:26.265Z,10.20
2018-09-24T06:30:07.126Z,10.20
2018-09-24T06:32:42.150Z,10.30
2018-09-24T06:35:20.767Z,10.30
2018-09-24T06:37:55.653Z,10.30
2018-09-24T06:40:30.272Z,10.40
2018-09-24T06:43:04.735Z,10.30
2018-09-24T06:45:39.385Z,10.40
2018-09-24T06:48:17.753Z,10.50
2018-09-24T06:50:52.053Z,10.50
2018-09-24T06:53:27.624Z,10.50
2018-09-24T06:56:02.315Z,10.60
2018-09-24T06:58:36.870Z,10.60
2018-09-24T07:01:12.012Z,10.70
2018-09-24T07:03:46.627Z,10.70
2018-09-24T07:06:27.802Z,10.70
2018-09-24T07:09:03.254Z,10.80
2018-09-24T07:11:38.280Z,10.90
2018-09-24T07:14:12.830Z,11.00
2018-09-24T07:16:47.642Z,10.90
2018-09-24T07:19:22.179Z,11.00
2018-09-24T07:21:56.674Z,11.00
2018-09-24T07:24:36.727Z,11.10
2018-09-24T07:27:11.739Z,11.10
2018-09-24T07:29:49.039Z,11.00
2018-09-24T07:32:23.933Z,11.00
2018-09-24T07:34:58.411Z,11.10
2018-09-24T07:37:33.243Z,11.20
2018-09-24T07:40:07.774Z,11.30
2018-09-24T07:42:47.874Z,11.30
2018-09-24T07:45:22.414Z,11.30
2018-09-24T07:47:57.722Z,11.40
2018-09-24T07:50:32.288Z,11.50
2018-09-24T07:53:07.357Z,11.50
2018-09-24T07:55:41.852Z,11.60
2018-09-24T07:58:17.076Z,11.60
2018-09-24T08:00:59.077Z,11.70
2018-09-24T08:03:33.712Z,11.60
2018-09-24T08:06:08.944Z,11.50
2018-09-24T08:08:44.012Z,11.50
2018-09-24T08:11:18.400Z,11.60
2018-09-24T08:13:53.089Z,11.70
2018-09-24T08:16:27.644Z,11.70
2018-09-24T08:19:09.122Z,11.80
2018-09-24T08:21:43.629Z,11.80
2018-09-24T08:24:20.552Z,11.90
2018-09-24T08:26:54.767Z,12.00
2018-09-24T08:29:29.956Z,12.00
2018-09-24T08:32:05.227Z,12.10
2018-09-24T08:34:39.811Z,12.20
2018-09-24T08:37:20.501Z,12.10
2018-09-24T08:39:55.240Z,12.20
2018-09-24T08:42:30.162Z,12.30
2018-09-24T08:45:05.333Z,12.50
2018-09-24T08:47:39.860Z,12.60
2018-09-24T08:50:14.446Z,12.80
2018-09-24T08:52:49.454Z,13.10
2018-09-24T08:55:26.409Z,13.50
2018-09-24T08:58:01.230Z,13.90
2018-09-24T09:00:37.216Z,14.10
2018-09-24T09:03:12.525Z,14.50
2018-09-24T09:05:47.720Z,14.60
2018-09-24T09:08:22.887Z,15.10
2018-09-24T09:10:57.792Z,15.20
2018-09-24T09:13:37.014Z,15.30
2018-09-24T09:16:11.378Z,15.10
2018-09-24T09:18:47.299Z,15.00
2018-09-24T09:21:22.359Z,14.60
2018-09-24T09:23:57.267Z,14.40
2018-09-24T09:26:31.561Z,14.30
2018-09-24T09:29:06.309Z,14.10
2018-09-24T09:31:46.362Z,13.90
2018-09-24T09:34:21.527Z,13.90
2018-09-24T09:36:57.130Z,13.80
2018-09-24T09:39:32.032Z,13.70
2018-09-24T09:42:06.797Z,13.50
2018-09-24T09:44:42.649Z,13.50
2018-09-24T09:47:17.591Z,13.40
2018-09-24T09:49:56.719Z,13.40
2018-09-24T09:52:30.920Z,13.30
2018-09-24T09:55:08.788Z,13.50
2018-09-24T09:57:43.414Z,13.60
2018-09-24T10:00:18.130Z,13.80
2018-09-24T10:02:52.800Z,14.00
2018-09-24T10:05:27.278Z,14.10
2018-09-24T10:08:06.257Z,14.20
2018-09-24T10:10:41.205Z,14.50
2018-09-24T10:13:23.542Z,15.00
2018-09-24T10:15:58.345Z,15.70
2018-09-24T10:18:33.014Z,16.20
2018-09-24T10:21:14.857Z,16.40
2018-09-24T10:23:49.563Z,16.60
2018-09-24T10:26:26.027Z,16.70
2018-09-24T10:29:00.547Z,16.70
2018-09-24T10:31:35.402Z,16.70
2018-09-24T10:34:10.016Z,16.80
2018-09-24T10:36:45.033Z,16.70
2018-09-24T10:39:23.274Z,16.70
2018-09-24T10:41:57.492Z,16.60
2018-09-24T10:44:34.838Z,17.10
2018-09-24T10:49:43.723Z,17.50
2018-09-24T10:52:18.031Z,18.10
2018-09-24T10:54:52.431Z,18.40
2018-09-24T10:57:32.566Z,18.60
2018-09-24T11:00:06.833Z,18.80
2018-09-24T11:02:43.434Z,18.90
2018-09-24T11:05:17.994Z,19.00
2018-09-24T11:07:52.246Z,19.00
2018-09-24T11:10:27.226Z,18.70
2018-09-24T11:13:01.581Z,18.90
2018-09-24T11:15:44.091Z,19.00
2018-09-24T11:18:18.342Z,18.70
2018-09-24T11:20:53.207Z,18.80
2018-09-24T11:23:27.464Z,18.80
2018-09-24T11:26:02.155Z,18.90
2018-09-24T11:28:36.543Z,19.00
2018-09-24T11:31:11.223Z,18.90
2018-09-24T11:33:54.314Z,18.70
2018-09-24T11:36:29.218Z,18.50
2018-09-24T11:39:04.663Z,18.20
2018-09-24T11:41:39.839Z,18.20
2018-09-24T11:44:14.389Z,18.20
2018-09-24T11:46:49.625Z,18.50
2018-09-24T11:49:24.325Z,18.50
2018-09-24T11:52:03.243Z,18.40
2018-09-24T11:54:38.048Z,18.30
2018-09-24T11:57:15.663Z,18.10
2018-09-24T11:59:50.328Z,18.10
2018-09-24T12:02:24.632Z,18.00
2018-09-24T12:04:59.068Z,18.20
2018-09-24T12:07:33.619Z,18.30
2018-09-24T12:10:16.217Z,18.20
2018-09-24T12:12:51.039Z,18.00
2018-09-24T12:15:26.223Z,17.70
2018-09-24T12:18:00.857Z,17.40
2018-09-24T12:20:35.148Z,17.20
2018-09-24T12:23:09.741Z,17.10
2018-09-24T12:25:44.175Z,16.60
2018-09-24T12:28:25.352Z,16.30
2018-09-24T12:30:59.812Z,15.80
2018-09-24T12:33:35.321Z,15.50
2018-09-24T12:36:09.572Z,15.20
2018-09-24T12:38:44.111Z,15.00
2018-09-24T12:41:18.322Z,14.80
2018-09-24T12:43:52.685Z,14.70
2018-09-24T12:46:35.708Z,14.40
2018-09-24T12:49:10.060Z,14.40
2018-09-24T12:51:46.336Z,14.20
2018-09-24T12:54:20.696Z,13.90
2018-09-24T12:56:55.289Z,13.90
2018-09-24T12:59:29.638Z,13.60
2018-09-24T13:02:04.468Z,13.60
2018-09-24T13:04:45.851Z,13.50
2018-09-24T13:07:21.501Z,13.40
2018-09-24T13:09:56.131Z,13.30
2018-09-24T13:12:30.737Z,13.30
2018-09-24T13:15:05.017Z,13.10
2018-09-24T13:17:39.411Z,13.20
2018-09-24T13:20:13.759Z,13.10
2018-09-24T13:22:56.405Z,13.10
2018-09-24T13:25:31.060Z,13.10
2018-09-24T13:28:07.041Z,13.20
2018-09-24T13:30:41.629Z,13.30
2018-09-24T13:33:16.920Z,13.40
2018-09-24T13:35:51.579Z,13.40
2018-09-24T13:38:26.050Z,13.50
2018-09-24T13:41:07.266Z,13.50
2018-09-24T13:43:41.892Z,13.50
2018-09-24T13:46:18.810Z,13.60
2018-09-24T13:48:53.412Z,13.60
2018-09-24T13:51:28.335Z,13.60
2018-09-24T13:56:34.253Z,13.70
2018-09-24T14:01:52.073Z,14.10
2018-09-24T14:04:28.453Z,14.30
2018-09-24T14:07:03.054Z,14.60
2018-09-24T14:09:37.691Z,14.60
2018-09-24T14:12:12.474Z,14.60
2018-09-24T14:14:47.203Z,14.50
2018-09-24T14:17:27.282Z,14.50
2018-09-24T14:20:02.485Z,14.60
2018-09-24T14:22:36.943Z,14.60
2018-09-24T14:25:11.719Z,14.70
2018-09-24T14:27:46.204Z,14.80
2018-09-24T14:30:20.992Z,14.70
2018-09-24T14:32:55.653Z,14.70
2018-09-24T14:35:36.204Z,14.60
2018-09-24T14:38:10.595Z,14.50
2018-09-24T14:40:46.087Z,14.40
2018-09-24T14:43:20.622Z,14.20
2018-09-24T14:45:54.995Z,14.10
2018-09-24T14:48:29.622Z,13.90
2018-09-24T14:51:04.003Z,13.80
2018-09-24T14:53:44.309Z,13.70
2018-09-24T14:56:18.554Z,13.60
2018-09-24T14:58:56.090Z,13.50
2018-09-24T15:01:30.833Z,13.40
2018-09-24T15:04:05.565Z,13.40
2018-09-24T15:06:39.882Z,13.40
2018-09-24T15:09:14.388Z,13.40
2018-09-24T15:11:55.337Z,13.40
2018-09-24T15:14:30.061Z,13.40
2018-09-24T15:17:06.196Z,13.40
2018-09-24T15:19:41.111Z,13.50
2018-09-24T15:22:16.360Z,13.50
2018-09-24T15:24:50.976Z,13.70
2018-09-24T15:27:25.333Z,13.80
2018-09-24T15:30:06.036Z,13.90
2018-09-24T15:32:40.355Z,14.00
2018-09-24T15:35:16.757Z,14.10
2018-09-24T15:37:51.837Z,14.10
2018-09-24T15:40:26.277Z,14.00
2018-09-24T15:43:01.108Z,14.00
2018-09-24T15:45:36.037Z,14.00
2018-09-24T15:48:17.194Z,14.10
2018-09-24T15:50:51.765Z,14.10
2018-09-24T15:53:26.362Z,13.90
2018-09-24T15:56:01.137Z,13.90
2018-09-24T15:58:35.939Z,13.90
2018-09-24T16:01:10.744Z,13.80
2018-09-24T16:03:45.567Z,13.80
2018-09-24T16:06:24.862Z,13.80
2018-09-24T16:08:59.752Z,13.80
2018-09-24T16:11:37.652Z,13.80
2018-09-24T16:14:12.217Z,13.80
2018-09-24T16:16:46.664Z,13.90
2018-09-24T16:19:21.342Z,14.00
2018-09-24T16:21:55.723Z,14.00
2018-09-24T16:24:34.914Z,14.00
2018-09-24T16:27:09.452Z,14.10
2018-09-24T16:29:44.315Z,14.10
2018-09-24T16:32:19.717Z,14.10
2018-09-24T16:34:54.019Z,14.00
2018-09-24T16:37:29.480Z,14.00
2018-09-24T16:40:05.092Z,14.00
2018-09-24T16:42:44.857Z,14.00
2018-09-24T16:47:56.214Z,13.90
2018-09-24T16:50:30.675Z,13.90
2018-09-24T16:53:05.295Z,13.80
2018-09-24T16:55:39.969Z,13.80
2018-09-24T16:58:15.804Z,13.70
2018-09-24T17:00:55.367Z,13.70
2018-09-24T17:03:30.076Z,13.70
2018-09-24T17:06:05.923Z,13.60
2018-09-24T17:08:41.536Z,13.50
2018-09-24T17:11:15.964Z,13.50
2018-09-24T17:13:50.531Z,13.40
2018-09-24T17:16:25.105Z,13.40
2018-09-24T17:19:04.777Z,13.30
2018-09-24T17:21:39.372Z,13.30
2018-09-24T17:24:16.357Z,13.20
2018-09-24T17:26:50.927Z,13.20
2018-09-24T17:29:25.891Z,13.10
2018-09-24T17:32:00.780Z,13.00
2018-09-24T17:34:35.063Z,13.00
2018-09-24T17:37:15.767Z,12.90
2018-09-24T17:39:50.166Z,12.90
2018-09-24T17:42:25.971Z,12.80
2018-09-24T17:45:00.486Z,12.70
2018-09-24T17:47:35.737Z,12.70
2018-09-24T17:53:01.009Z,12.50
2018-09-24T17:55:35.434Z,12.50
2018-09-24T17:58:10.304Z,12.40
2018-09-24T18:00:44.664Z,12.40
2018-09-24T18:03:19.417Z,12.30
2018-09-24T18:05:54.423Z,12.30
2018-09-24T18:08:31.656Z,12.30
2018-09-24T18:11:06.068Z,12.20
2018-09-24T18:13:41.214Z,12.20
2018-09-24T18:16:15.557Z,12.10
2018-09-24T18:18:50.034Z,12.10
2018-09-24T18:21:24.766Z,12.10
2018-09-24T18:23:59.754Z,12.10
2018-09-24T18:26:41.238Z,12.00
2018-09-24T18:29:15.576Z,12.00
2018-09-24T18:31:51.857Z,12.00
2018-09-24T18:34:26.231Z,11.90
2018-09-24T18:37:00.826Z,11.80
2018-09-24T18:39:35.496Z,11.80
2018-09-24T18:42:09.895Z,11.80
2018-09-24T18:44:51.158Z,11.80
2018-09-24T18:47:26.075Z,11.70
2018-09-24T18:50:02.706Z,11.70
2018-09-24T18:52:38.183Z,11.70
2018-09-24T18:55:13.080Z,11.70
2018-09-24T18:57:48.546Z,11.60
2018-09-24T19:00:23.067Z,11.70
2018-09-24T19:03:01.146Z,11.60
2018-09-24T19:05:35.438Z,11.50
2018-09-24T19:08:12.646Z,11.50
2018-09-24T19:10:47.493Z,11.50
2018-09-24T19:13:22.361Z,11.50
2018-09-24T19:15:57.071Z,11.50
2018-09-24T19:18:31.483Z,11.40
2018-09-24T19:21:13.726Z,11.40
2018-09-24T19:23:48.118Z,11.40
2018-09-24T19:26:23.735Z,11.30
2018-09-24T19:28:58.176Z,11.30
2018-09-24T19:31:33.034Z,11.30
2018-09-24T19:34:08.041Z,11.30
2018-09-24T19:36:42.420Z,11.30
2018-09-24T19:39:21.113Z,11.20
2018-09-24T19:41:55.395Z,11.30
2018-09-24T19:44:31.581Z,11.30
2018-09-24T19:47:06.017Z,11.30
2018-09-24T19:49:40.764Z,11.40
2018-09-24T19:52:16.346Z,11.40
2018-09-24T19:54:50.748Z,11.40
2018-09-24T19:57:31.449Z,11.40
2018-09-24T20:00:05.872Z,11.40
2018-09-24T20:02:40.464Z,11.30
2018-09-24T20:05:14.996Z,11.30
2018-09-24T20:07:49.770Z,11.30
2018-09-24T20:10:24.295Z,11.30
2018-09-24T20:12:59.076Z,11.20
2018-09-24T20:15:39.833Z,11.20
2018-09-24T20:18:14.679Z,11.10
2018-09-24T20:20:49.620Z,11.10
2018-09-24T20:23:25.608Z,11.10
2018-09-24T20:26:00.459Z,11.10
2018-09-24T20:28:35.328Z,11.10
2018-09-24T20:31:09.777Z,11.00
2018-09-24T20:33:49.330Z,11.00
2018-09-24T20:36:24.453Z,10.90
2018-09-24T20:38:59.376Z,10.90
2018-09-24T20:41:34.094Z,10.90
2018-09-24T20:44:09.000Z,10.80
2018-09-24T20:46:43.796Z,10.80
2018-09-24T20:49:18.372Z,10.70
2018-09-24T20:52:01.289Z,10.60
2018-09-24T20:54:35.890Z,10.70
2018-09-24T20:57:10.760Z,10.70
2018-09-24T20:59:45.426Z,10.70
2018-09-24T21:02:19.897Z,10.60
2018-09-24T21:04:54.440Z,10.60
2018-09-24T21:07:29.578Z,10.60
2018-09-24T21:10:12.084Z,10.60
2018-09-24T21:12:46.636Z,10.60
2018-09-24T21:15:21.042Z,10.50
2018-09-24T21:17:55.586Z,10.60
2018-09-24T21:20:29.968Z,10.50
2018-09-24T21:23:04.484Z,10.50
2018-09-24T21:25:38.684Z,10.50
2018-09-24T21:28:18.713Z,10.40
2018-09-24T21:30:53.399Z,10.40
2018-09-24T21:33:28.776Z,10.40
2018-09-24T21:36:03.451Z,10.40
2018-09-24T21:38:37.671Z,10.30
2018-09-24T21:41:12.497Z,10.30
2018-09-24T21:43:46.896Z,10.30
2018-09-24T21:49:00.487Z,10.20
2018-09-24T21:51:39.502Z,10.20
2018-09-24T21:54:13.929Z,10.10
2018-09-24T21:56:49.714Z,10.10
2018-09-24T21:59:24.154Z,10.10
2018-09-24T22:01:58.668Z,10.10
2018-09-24T22:04:38.389Z,10.10
2018-09-24T22:07:12.728Z,10.10
2018-09-24T22:09:49.241Z,10.10
2018-09-24T22:12:23.785Z,10.20
2018-09-24T22:14:58.472Z,10.20
2018-09-24T22:17:33.137Z,10.20
2018-09-24T22:20:07.452Z,10.20
2018-09-24T22:22:48.287Z,10.20
2018-09-24T22:25:22.946Z,10.20
2018-09-24T22:27:59.258Z,10.30
2018-09-24T22:30:33.915Z,10.20
2018-09-24T22:33:08.185Z,10.30
2018-09-24T22:35:42.842Z,10.30
2018-09-24T22:38:17.349Z,10.30
2018-09-24T22:43:32.882Z,10.30
2018-09-24T22:46:09.483Z,10.20
2018-09-24T22:48:43.891Z,10.20
2018-09-24T22:51:18.573Z,10.10
2018-09-24T22:53:52.863Z,10.20
2018-09-24T22:56:27.537Z,10.10
2018-09-24T22:59:02.118Z,10.10
2018-09-24T23:01:36.509Z,10.10
2018-09-24T23:04:12.544Z,10.00
2018-09-24T23:06:47.081Z,10.00
2018-09-24T23:09:23.354Z,10.00
2018-09-24T23:11:58.028Z,10.00
2018-09-24T23:14:32.229Z,9.90
2018-09-24T23:19:36.618Z,9.90
2018-09-24T23:22:11.267Z,9.90
2018-09-24T23:24:46.194Z,9.80
2018-09-24T23:27:24.058Z,9.80
2018-09-24T23:29:58.698Z,9.70
2018-09-24T23:32:33.102Z,9.70
2018-09-24T23:35:07.454Z,9.70
2018-09-24T23:37:41.754Z,9.80
2018-09-24T23:40:18.437Z,9.70
2018-09-24T23:42:53.128Z,9.70
2018-09-24T23:45:35.356Z,9.70
2018-09-24T23:48:09.854Z,9.80
2018-09-24T23:50:44.286Z,9.90
2018-09-24T23:53:18.788Z,9.80
2018-09-24T23:55:53.547Z,9.80
2018-09-24T23:58:28.148Z,9.80
